createdAt,value
2023-04-02T00:01:55.557Z,5.38
2023-04-02T00:03:55.604Z,5.39
2023-04-02T00:05:55.567Z,5.35
2023-04-02T00:07:55.588Z,5.33
2023-04-02T00:09:55.536Z,5.28
2023-04-02T00:12:49.382Z,5.31
2023-04-02T00:14:49.347Z,5.25
2023-04-02T00:16:49.356Z,5.21
2023-04-02T00:18:49.378Z,5.25
2023-04-02T00:20:49.315Z,5.21
2023-04-02T00:22:49.338Z,5.15
2023-04-02T00:24:49.391Z,5.08
2023-04-02T00:26:49.374Z,5.11
2023-04-02T00:28:08.966Z,5.15
2023-04-02T00:30:08.975Z,5.14
2023-04-02T00:32:09.039Z,5.07
2023-04-02T00:34:08.993Z,5.12
2023-04-02T00:36:09.046Z,5.15
2023-04-02T00:38:08.994Z,5.01
2023-04-02T00:40:08.967Z,5.13
2023-04-02T00:43:56.360Z,5.17
2023-04-02T00:45:56.463Z,5.21
2023-04-02T00:47:56.381Z,5.14
2023-04-02T00:49:56.311Z,5.17
2023-04-02T00:51:56.311Z,5.22
2023-04-02T00:53:56.360Z,4.88
2023-04-02T00:55:56.340Z,4.25
2023-04-02T00:58:51.374Z,4.5
2023-04-02T01:00:51.421Z,4.63
2023-04-02T01:02:51.408Z,4.74
2023-04-02T01:04:51.404Z,4.68
2023-04-02T01:06:51.333Z,4.85
2023-04-02T01:08:51.391Z,4.96
2023-04-02T01:10:51.335Z,5.07
2023-04-02T01:14:06.761Z,5.16
2023-04-02T01:16:06.742Z,5.07
2023-04-02T01:18:06.690Z,5.13
2023-04-02T01:20:06.731Z,5.13
2023-04-02T01:22:06.676Z,5.04
2023-04-02T01:24:06.727Z,5.07
2023-04-02T01:26:06.677Z,5.12
2023-04-02T01:29:23.149Z,5.12
2023-04-02T01:31:23.110Z,5.16
2023-04-02T01:33:23.132Z,5.13
2023-04-02T01:35:23.102Z,5.1
2023-04-02T01:37:23.154Z,5.11
2023-04-02T01:39:23.103Z,5.14
2023-04-02T01:41:23.061Z,5.08
2023-04-02T01:44:33.712Z,5.16
2023-04-02T01:46:33.678Z,5.18
2023-04-02T01:48:33.904Z,5.16
2023-04-02T01:50:33.671Z,5.21
2023-04-02T01:52:33.765Z,5.24
2023-04-02T01:54:33.677Z,5.25
2023-04-02T01:56:33.881Z,5.25
2023-04-02T01:59:35.853Z,5.24
2023-04-02T02:01:35.707Z,5.26
2023-04-02T02:03:36.028Z,5.29
2023-04-02T02:05:35.777Z,5.3
2023-04-02T02:07:35.686Z,5.27
2023-04-02T02:09:35.652Z,5.27
2023-04-02T02:11:35.725Z,5.28
2023-04-02T02:14:43.407Z,5.28
2023-04-02T02:16:43.456Z,5.33
2023-04-02T02:18:43.430Z,5.34
2023-04-02T02:20:43.348Z,5.31
2023-04-02T02:22:43.407Z,5.31
2023-04-02T02:24:43.404Z,5.32
2023-04-02T02:26:43.423Z,5.27
2023-04-02T02:29:16.382Z,5.26
2023-04-02T02:31:16.357Z,4.9
2023-04-02T02:33:16.475Z,4.52
2023-04-02T02:35:16.380Z,4.52
2023-04-02T02:37:16.393Z,4.76
2023-04-02T02:39:16.374Z,4.92
2023-04-02T02:41:16.391Z,4.93
2023-04-02T02:43:16.360Z,4.69
2023-04-02T02:44:48.508Z,4.79
2023-04-02T02:46:48.502Z,4.91
2023-04-02T02:48:48.493Z,4.89
2023-04-02T02:50:48.447Z,4.77
2023-04-02T02:52:48.487Z,4.76
2023-04-02T02:54:48.508Z,4.86
2023-04-02T02:56:48.518Z,4.93
2023-04-02T02:59:41.756Z,4.96
2023-04-02T03:01:41.746Z,5.01
2023-04-02T03:03:41.819Z,5.05
2023-04-02T03:05:41.767Z,5.06
2023-04-02T03:07:41.750Z,5.02
2023-04-02T03:09:41.702Z,4.98
2023-04-02T03:11:41.695Z,4.98
2023-04-02T03:13:41.696Z,5
2023-04-02T03:15:43.793Z,5.03
2023-04-02T03:17:43.874Z,5.02
2023-04-02T03:19:44.119Z,4.99
2023-04-02T03:21:43.978Z,4.88
2023-04-02T03:23:44.147Z,4.95
2023-04-02T03:25:44.001Z,4.96
2023-04-02T03:27:44.231Z,4.9
2023-04-02T03:30:08.467Z,4.91
2023-04-02T03:32:08.448Z,4.7
2023-04-02T03:34:08.480Z,4.76
2023-04-02T03:36:08.506Z,4.84
2023-04-02T03:38:08.500Z,4.82
2023-04-02T03:40:08.482Z,4.79
2023-04-02T03:42:08.439Z,4.74
2023-04-02T03:45:49.678Z,4.63
2023-04-02T03:47:49.670Z,4.63
2023-04-02T03:49:49.667Z,4.44
2023-04-02T03:51:49.626Z,4.57
2023-04-02T03:53:49.717Z,4.53
2023-04-02T03:55:49.629Z,4.63
2023-04-02T03:57:49.707Z,4.54
2023-04-02T04:00:34.308Z,4.53
2023-04-02T04:02:34.361Z,4.59
2023-04-02T04:04:34.331Z,4.56
2023-04-02T04:06:34.257Z,4.46
2023-04-02T04:08:34.279Z,4.34
2023-04-02T04:10:34.328Z,4.47
2023-04-02T04:12:34.336Z,4.48
2023-04-02T04:15:52.588Z,4.43
2023-04-02T04:17:52.598Z,4.6
2023-04-02T04:19:52.590Z,4.61
2023-04-02T04:21:52.623Z,4.57
2023-04-02T04:23:52.579Z,4.57
2023-04-02T04:25:52.627Z,4.59
2023-04-02T04:27:52.611Z,4.61
2023-04-02T04:30:42.244Z,4.74
2023-04-02T04:32:42.360Z,4.74
2023-04-02T04:34:42.265Z,4.8
2023-04-02T04:36:42.261Z,4.94
2023-04-02T04:38:42.263Z,4.94
2023-04-02T04:40:42.242Z,5.06
2023-04-02T04:42:42.320Z,5.16
2023-04-02T04:44:42.289Z,5.18
2023-04-02T04:46:34.803Z,5.11
2023-04-02T04:48:35.283Z,5.29
2023-04-02T04:50:34.753Z,5.36
2023-04-02T04:52:34.790Z,5.41
2023-04-02T04:54:34.758Z,5.43
2023-04-02T04:56:34.803Z,5.53
2023-04-02T04:58:34.808Z,5.53
2023-04-02T05:01:46.373Z,5.53
2023-04-02T05:03:46.296Z,5.81
2023-04-02T05:05:46.340Z,5.78
2023-04-02T05:07:46.290Z,5.85
2023-04-02T05:09:46.271Z,5.7
2023-04-02T05:11:46.307Z,5.42
2023-04-02T05:13:46.288Z,5.66
2023-04-02T05:16:45.948Z,5.99
2023-04-02T05:18:45.879Z,5.94
2023-04-02T05:20:45.875Z,6.01
2023-04-02T05:22:45.938Z,6.21
2023-04-02T05:24:45.903Z,6.89
2023-04-02T05:26:46.041Z,7.56
2023-04-02T05:28:45.866Z,8.82
2023-04-02T05:32:06.753Z,9.3
2023-04-02T05:34:06.727Z,9.85
2023-04-02T05:36:06.721Z,9.88
2023-04-02T05:38:06.719Z,9.99
2023-04-02T05:40:06.669Z,9.67
2023-04-02T05:42:06.707Z,9.38
2023-04-02T05:44:06.730Z,9.41
2023-04-02T05:47:10.997Z,9.7
2023-04-02T05:49:11.244Z,9.65
2023-04-02T05:51:11.044Z,9.68
2023-04-02T05:53:11.259Z,9.29
2023-04-02T05:55:10.988Z,8.92
2023-04-02T05:57:10.985Z,8.1
2023-04-02T05:59:11.038Z,7.51
2023-04-02T06:01:46.762Z,7.31
2023-04-02T06:03:47.001Z,7.74
2023-04-02T06:05:46.986Z,7.6
2023-04-02T06:07:46.844Z,8.24
2023-04-02T06:09:46.763Z,8.87
2023-04-02T06:11:46.846Z,9.58
2023-04-02T06:13:46.810Z,10.16
2023-04-02T06:15:47.806Z,9.96
2023-04-02T06:17:31.549Z,9.67
2023-04-02T06:19:31.576Z,9.58
2023-04-02T06:21:31.294Z,8.88
2023-04-02T06:23:31.441Z,8.43
2023-04-02T06:25:31.374Z,7.97
2023-04-02T06:27:31.368Z,7.81
2023-04-02T06:29:31.306Z,8.4
2023-04-02T06:32:39.944Z,9.66
2023-04-02T06:34:39.817Z,10.25
2023-04-02T06:36:39.774Z,10.26
2023-04-02T06:38:39.821Z,10.73
2023-04-02T06:40:39.799Z,10.02
2023-04-02T06:42:39.898Z,10.05
2023-04-02T06:44:39.840Z,10.24
2023-04-02T06:47:24.574Z,10.63
2023-04-02T06:49:24.406Z,10.25
2023-04-02T06:51:24.505Z,10.37
2023-04-02T06:53:24.541Z,10.46
2023-04-02T06:55:24.448Z,9.89
2023-04-02T06:57:24.452Z,10.2
2023-04-02T06:59:24.454Z,10.29
2023-04-02T07:02:57.625Z,10.88
2023-04-02T07:04:57.648Z,11.02
2023-04-02T07:06:57.618Z,11.1
2023-04-02T07:08:57.562Z,11.11
2023-04-02T07:10:57.645Z,11.1
2023-04-02T07:12:57.675Z,11.42
2023-04-02T07:14:57.642Z,11.05
2023-04-02T07:18:18.753Z,10.94
2023-04-02T07:20:18.792Z,10.82
2023-04-02T07:22:18.679Z,11.01
2023-04-02T07:24:18.704Z,11.3
2023-04-02T07:26:18.720Z,11.57
2023-04-02T07:28:19.173Z,11.47
2023-04-02T07:30:18.697Z,11.92
2023-04-02T07:33:31.567Z,12.06
2023-04-02T07:35:31.453Z,12.17
2023-04-02T07:37:31.423Z,12.41
2023-04-02T07:39:31.384Z,12.17
2023-04-02T07:41:31.480Z,12.27
2023-04-02T07:43:31.491Z,11.54
2023-04-02T07:45:31.442Z,12.14
2023-04-02T07:48:26.833Z,12.89
2023-04-02T07:50:27.045Z,12.82
2023-04-02T07:52:27.092Z,13.13
2023-04-02T07:54:26.860Z,13.13
2023-04-02T07:56:26.882Z,13.1
2023-04-02T07:58:26.869Z,12
2023-04-02T08:00:26.829Z,11.12
2023-04-02T08:03:15.394Z,12.45
2023-04-02T08:05:15.299Z,11.75
2023-04-02T08:07:15.289Z,11.86
2023-04-02T08:09:15.298Z,12.2
2023-04-02T08:11:15.281Z,12.68
2023-04-02T08:13:15.279Z,12.59
2023-04-02T08:15:15.289Z,12.86
2023-04-02T08:18:49.221Z,12.21
2023-04-02T08:20:49.299Z,12.94
2023-04-02T08:22:49.286Z,13.91
2023-04-02T08:24:49.255Z,14.04
2023-04-02T08:26:49.250Z,14.11
2023-04-02T08:28:49.227Z,13.32
2023-04-02T08:30:49.252Z,12.52
2023-04-02T08:33:25.611Z,13.55
2023-04-02T08:35:25.672Z,14.2
2023-04-02T08:37:26.004Z,14.74
2023-04-02T08:39:25.608Z,15.3
2023-04-02T08:41:25.820Z,15.22
2023-04-02T08:43:25.758Z,14.38
2023-04-02T08:45:25.925Z,13.55
2023-04-02T08:47:25.617Z,13.76
2023-04-02T08:48:46.597Z,14.9
2023-04-02T08:50:46.558Z,16.25
2023-04-02T08:52:46.578Z,16.56
2023-04-02T08:54:46.501Z,15.32
2023-04-02T08:56:46.501Z,13.53
2023-04-02T08:58:46.650Z,13.71
2023-04-02T09:00:46.549Z,13.81
2023-04-02T09:04:30.326Z,14.14
2023-04-02T09:06:30.245Z,14.33
2023-04-02T09:08:30.246Z,14.5
2023-04-02T09:10:30.350Z,14.97
2023-04-02T09:12:30.256Z,15.08
2023-04-02T09:14:30.251Z,14.59
2023-04-02T09:16:30.337Z,15.13
2023-04-02T09:19:30.021Z,14.11
2023-04-02T09:21:29.978Z,14.04
2023-04-02T09:23:30.000Z,15.03
2023-04-02T09:25:30.014Z,15.18
2023-04-02T09:27:30.089Z,15.96
2023-04-02T09:29:30.035Z,16.57
2023-04-02T09:31:30.140Z,16.16
2023-04-02T09:34:39.176Z,15.51
2023-04-02T09:36:39.441Z,14.34
2023-04-02T09:38:39.184Z,13.99
2023-04-02T09:40:39.198Z,15.02
2023-04-02T09:42:39.224Z,16.09
2023-04-02T09:44:39.169Z,16.57
2023-04-02T09:46:39.269Z,15.33
2023-04-02T09:50:01.656Z,15.33
2023-04-02T09:52:01.712Z,14.33
2023-04-02T09:54:01.802Z,15.44
2023-04-02T09:56:01.675Z,15.97
2023-04-02T09:58:02.156Z,15.9
2023-04-02T10:00:01.666Z,15.62
2023-04-02T10:02:01.682Z,15.1
2023-04-02T10:04:38.483Z,15.66
2023-04-02T10:06:38.379Z,15.83
2023-04-02T10:08:38.435Z,16.75
2023-04-02T10:10:38.444Z,15.87
2023-04-02T10:12:38.432Z,15.91
2023-04-02T10:14:38.364Z,16.16
2023-04-02T10:16:38.381Z,15.89
2023-04-02T10:20:26.859Z,16
2023-04-02T10:22:26.727Z,15.94
2023-04-02T10:24:26.802Z,15.41
2023-04-02T10:26:26.721Z,15.24
2023-04-02T10:28:26.777Z,15.44
2023-04-02T10:30:26.732Z,15.81
2023-04-02T10:32:26.824Z,16.25
2023-04-02T10:35:08.615Z,15.9
2023-04-02T10:37:08.697Z,16.21
2023-04-02T10:39:08.586Z,16.49
2023-04-02T10:41:08.577Z,17.17
2023-04-02T10:43:08.633Z,17.16
2023-04-02T10:45:08.572Z,17.05
2023-04-02T10:47:08.690Z,17.92
2023-04-02T10:50:02.247Z,17.95
2023-04-02T10:52:02.264Z,16.64
2023-04-02T10:54:02.279Z,16.48
2023-04-02T10:56:02.290Z,17.08
2023-04-02T10:58:02.343Z,18.34
2023-04-02T11:00:02.282Z,19.07
2023-04-02T11:02:02.268Z,18.56
2023-04-02T11:05:11.771Z,17.87
2023-04-02T11:07:14.726Z,18.16
2023-04-02T11:09:11.799Z,17.29
2023-04-02T11:11:11.737Z,17.27
2023-04-02T11:13:11.745Z,16.66
2023-04-02T11:15:11.733Z,17.03
2023-04-02T11:17:11.738Z,16.08
2023-04-02T11:19:11.744Z,16.31
2023-04-02T11:21:07.375Z,16.24
2023-04-02T11:23:07.410Z,16.09
2023-04-02T11:25:07.466Z,15.33
2023-04-02T11:27:07.360Z,15.31
2023-04-02T11:29:07.375Z,15.37
2023-04-02T11:31:07.422Z,15.31
2023-04-02T11:33:07.386Z,16.17
2023-04-02T11:35:39.997Z,16.64
2023-04-02T11:37:39.857Z,16.84
2023-04-02T11:39:39.975Z,17.18
2023-04-02T11:41:39.854Z,18.3
2023-04-02T11:43:39.568Z,18.7
2023-04-02T11:45:50.255Z,17.53
2023-04-02T11:47:39.675Z,18.72
2023-04-02T11:50:44.264Z,17.94
2023-04-02T11:52:44.470Z,18.3
2023-04-02T11:54:44.351Z,16.82
2023-04-02T11:56:44.297Z,16.27
2023-04-02T11:58:44.281Z,16.28
2023-04-02T12:00:44.545Z,15.99
2023-04-02T12:02:45.471Z,16.48
2023-04-02T12:05:49.338Z,17.01
2023-04-02T12:07:49.280Z,16.7
2023-04-02T12:09:49.328Z,17.04
2023-04-02T12:11:51.004Z,16.88
2023-04-02T12:13:49.300Z,16.45
2023-04-02T12:15:49.331Z,16.4
2023-04-02T12:17:49.368Z,16.83
2023-04-02T12:19:49.300Z,17.32
2023-04-02T12:20:56.161Z,17.57
2023-04-02T12:22:56.172Z,17.73
2023-04-02T12:24:56.131Z,17.76
2023-04-02T12:26:56.268Z,17.38
2023-04-02T12:28:56.224Z,17.55
2023-04-02T12:30:56.251Z,17.86
2023-04-02T12:32:56.148Z,17.39
2023-04-02T12:34:56.148Z,17.14
2023-04-02T12:36:32.129Z,16.25
2023-04-02T12:38:32.213Z,16.46
2023-04-02T12:40:32.136Z,17.12
2023-04-02T12:42:32.197Z,17.34
2023-04-02T12:44:32.172Z,17.59
2023-04-02T12:46:32.214Z,17.94
2023-04-02T12:48:32.286Z,18.39
2023-04-02T12:52:04.511Z,19.27
2023-04-02T12:54:04.551Z,19.52
2023-04-02T12:56:04.483Z,18.59
2023-04-02T12:58:04.576Z,18.25
2023-04-02T13:00:04.816Z,17.9
2023-04-02T13:02:04.865Z,17.81
2023-04-02T13:04:04.542Z,17.76
2023-04-02T13:07:04.909Z,18.22
2023-04-02T13:09:04.887Z,17.77
2023-04-02T13:11:04.964Z,18.12
2023-04-02T13:13:04.791Z,18.39
2023-04-02T13:15:04.989Z,18.64
2023-04-02T13:17:04.915Z,18.27
2023-04-02T13:19:04.856Z,17.44
2023-04-02T13:22:05.716Z,18.02
2023-04-02T13:24:05.593Z,17.59
2023-04-02T13:26:05.656Z,17.83
2023-04-02T13:28:05.684Z,17.99
2023-04-02T13:30:05.666Z,17.76
2023-04-02T13:32:05.635Z,17.49
2023-04-02T13:34:05.793Z,17.19
2023-04-02T13:36:58.202Z,17.34
2023-04-02T13:38:58.199Z,17.49
2023-04-02T13:40:58.144Z,17.83
2023-04-02T13:42:58.250Z,17.87
2023-04-02T13:44:58.212Z,17.74
2023-04-02T13:46:58.211Z,17.65
2023-04-02T13:48:58.159Z,17.43
2023-04-02T13:52:10.594Z,17.41
2023-04-02T13:54:10.140Z,17.82
2023-04-02T13:56:10.182Z,17.69
2023-04-02T13:58:10.186Z,17.68
2023-04-02T14:00:10.133Z,17.97
2023-04-02T14:02:10.178Z,18.19
2023-04-02T14:04:10.220Z,18.19
2023-04-02T14:07:55.168Z,18.53
2023-04-02T14:09:55.200Z,18.6
2023-04-02T14:11:55.153Z,18.69
2023-04-02T14:13:55.140Z,18.22
2023-04-02T14:15:55.102Z,17.65
2023-04-02T14:17:55.189Z,17.74
2023-04-02T14:19:55.148Z,18.31
2023-04-02T14:22:59.322Z,18.15
2023-04-02T14:24:59.268Z,18.18
2023-04-02T14:26:59.415Z,18.28
2023-04-02T14:28:59.468Z,18.11
2023-04-02T14:30:59.277Z,18.12
2023-04-02T14:32:59.370Z,18.25
2023-04-02T14:34:59.381Z,18.1
2023-04-02T14:38:22.152Z,18.42
2023-04-02T14:40:22.039Z,17.73
2023-04-02T14:42:22.092Z,17.16
2023-04-02T14:44:22.042Z,17.29
2023-04-02T14:46:22.044Z,17.44
2023-04-02T14:48:22.029Z,17.55
2023-04-02T14:50:22.097Z,17.55
2023-04-02T14:53:09.159Z,17.47
2023-04-02T14:55:09.218Z,17.41
2023-04-02T14:57:09.263Z,17.31
2023-04-02T14:59:09.217Z,17.4
2023-04-02T15:01:09.446Z,17.53
2023-04-02T15:03:09.297Z,17.29
2023-04-02T15:05:09.178Z,17.24
2023-04-02T15:08:03.382Z,17.4
2023-04-02T15:10:03.246Z,17.54
2023-04-02T15:12:03.238Z,17.57
2023-04-02T15:14:03.320Z,17.45
2023-04-02T15:16:03.307Z,17.24
2023-04-02T15:18:03.349Z,17.18
2023-04-02T15:20:03.314Z,17.19
2023-04-02T15:23:40.832Z,16.89
2023-04-02T15:25:40.880Z,16.35
2023-04-02T15:27:40.794Z,16.39
2023-04-02T15:29:40.813Z,16.49
2023-04-02T15:31:40.848Z,16.09
2023-04-02T15:33:41.023Z,16.42
2023-04-02T15:35:41.020Z,16.36
2023-04-02T15:38:24.931Z,16.13
2023-04-02T15:40:24.572Z,15.87
2023-04-02T15:42:27.193Z,15.93
2023-04-02T15:44:24.622Z,15.98
2023-04-02T15:46:24.621Z,16.01
2023-04-02T15:48:24.709Z,15.96
2023-04-02T15:50:24.531Z,15.92
2023-04-02T15:54:00.157Z,15.69
2023-04-02T15:56:00.342Z,15.61
2023-04-02T15:58:00.154Z,15.53
2023-04-02T16:00:00.130Z,15.4
2023-04-02T16:02:00.113Z,15.29
2023-04-02T16:04:00.214Z,15.2
2023-04-02T16:06:00.133Z,15.12
2023-04-02T16:09:17.319Z,14.98
2023-04-02T16:11:17.326Z,14.92
2023-04-02T16:13:17.215Z,14.85
2023-04-02T16:15:17.336Z,14.8
2023-04-02T16:17:24.703Z,14.77
2023-04-02T16:19:17.329Z,14.72
2023-04-02T16:21:17.504Z,14.64
2023-04-02T16:24:04.193Z,14.6
2023-04-02T16:26:04.257Z,14.56
2023-04-02T16:28:04.226Z,14.48
2023-04-02T16:30:04.224Z,14.43
2023-04-02T16:32:04.163Z,14.42
2023-04-02T16:34:04.173Z,14.36
2023-04-02T16:36:04.324Z,14.3
2023-04-02T16:38:54.962Z,14.27
2023-04-02T16:41:05.028Z,14.2
2023-04-02T16:42:54.813Z,14.17
2023-04-02T16:44:55.074Z,14.12
2023-04-02T16:46:54.849Z,14
2023-04-02T16:48:54.851Z,13.97
2023-04-02T16:50:54.910Z,13.93
2023-04-02T16:54:10.366Z,13.84
2023-04-02T16:56:10.280Z,13.79
2023-04-02T16:58:10.323Z,13.75
2023-04-02T17:00:10.291Z,13.62
2023-04-02T17:02:10.360Z,13.68
2023-04-02T17:04:10.475Z,13.65
2023-04-02T17:06:10.258Z,13.64
2023-04-02T17:09:29.952Z,13.49
2023-04-02T17:11:29.770Z,13.42
2023-04-02T17:13:29.770Z,13.13
2023-04-02T17:15:29.808Z,13.06
2023-04-02T17:17:29.753Z,13.24
2023-04-02T17:19:29.820Z,13.24
2023-04-02T17:21:29.789Z,13.23
2023-04-02T17:24:29.504Z,13.22
2023-04-02T17:26:29.560Z,13.23
2023-04-02T17:28:29.670Z,13.2
2023-04-02T17:30:29.752Z,13.18
2023-04-02T17:32:29.845Z,13.07
2023-04-02T17:34:29.466Z,13.02
2023-04-02T17:36:29.432Z,13.03
2023-04-02T17:39:59.438Z,12.98
2023-04-02T17:41:59.342Z,12.88
2023-04-02T17:43:59.369Z,12.67
2023-04-02T17:46:02.682Z,12.51
2023-04-02T17:47:59.406Z,12.45
2023-04-02T17:50:01.079Z,12.33
2023-04-02T17:51:59.393Z,12.33
2023-04-02T17:54:36.928Z,12.28
2023-04-02T17:56:38.246Z,12.11
2023-04-02T17:58:36.921Z,11.96
2023-04-02T18:00:37.046Z,11.88
2023-04-02T18:02:36.956Z,11.91
2023-04-02T18:04:36.984Z,11.81
2023-04-02T18:06:37.218Z,11.48
2023-04-02T18:08:36.969Z,11.48
2023-04-02T18:09:53.207Z,11.51
2023-04-02T18:11:53.012Z,11.53
2023-04-02T18:13:53.088Z,11.38
2023-04-02T18:15:53.058Z,11.3
2023-04-02T18:17:53.360Z,11.3
2023-04-02T18:19:53.156Z,11.15
2023-04-02T18:21:53.063Z,11.01
2023-04-02T18:23:53.121Z,11.06
2023-04-02T18:25:01.289Z,11.06
2023-04-02T18:27:01.597Z,11.04
2023-04-02T18:29:01.212Z,11.01
2023-04-02T18:31:01.265Z,10.93
2023-04-02T18:33:01.311Z,10.86
2023-04-02T18:35:01.335Z,10.76
2023-04-02T18:37:01.207Z,10.69
2023-04-02T18:39:01.230Z,10.67
2023-04-02T18:40:26.347Z,10.68
2023-04-02T18:42:26.323Z,10.63
2023-04-02T18:44:26.463Z,10.5
2023-04-02T18:46:26.427Z,10.43
2023-04-02T18:48:26.383Z,10.36
2023-04-02T18:50:26.402Z,10.33
2023-04-02T18:52:26.319Z,10.31
2023-04-02T18:55:26.492Z,10.21
2023-04-02T18:57:26.418Z,10.09
2023-04-02T18:59:26.429Z,9.99
2023-04-02T19:01:26.478Z,10
2023-04-02T19:03:26.431Z,9.93
2023-04-02T19:05:26.656Z,9.82
2023-04-02T19:07:27.078Z,9.86
2023-04-02T19:11:12.268Z,9.81
2023-04-02T19:13:12.270Z,9.7
2023-04-02T19:15:12.239Z,9.69
2023-04-02T19:17:12.204Z,9.56
2023-04-02T19:19:12.305Z,9.49
2023-04-02T19:21:12.679Z,9.52
2023-04-02T19:23:12.320Z,9.47
2023-04-02T19:26:03.431Z,9.42
2023-04-02T19:28:03.410Z,9.32
2023-04-02T19:30:03.433Z,9.35
2023-04-02T19:32:03.516Z,9.38
2023-04-02T19:34:03.523Z,9.35
2023-04-02T19:36:03.405Z,9.32
2023-04-02T19:38:03.383Z,9.15
2023-04-02T19:41:16.990Z,9.14
2023-04-02T19:43:16.895Z,9.17
2023-04-02T19:45:17.094Z,9.1
2023-04-02T19:47:17.164Z,9.11
2023-04-02T19:49:16.989Z,9.02
2023-04-02T19:51:16.909Z,9.09
2023-04-02T19:53:17.070Z,9.05
2023-04-02T19:56:05.710Z,8.98
2023-04-02T19:58:17.563Z,8.97
2023-04-02T20:00:05.766Z,8.92
2023-04-02T20:02:05.653Z,8.86
2023-04-02T20:04:05.606Z,8.82
2023-04-02T20:06:05.544Z,8.84
2023-04-02T20:08:05.809Z,8.73
2023-04-02T20:11:02.068Z,8.89
2023-04-02T20:13:02.066Z,8.83
2023-04-02T20:15:02.077Z,8.81
2023-04-02T20:17:02.125Z,8.78
2023-04-02T20:19:02.167Z,8.7
2023-04-02T20:21:02.329Z,8.57
2023-04-02T20:23:02.244Z,8.64
2023-04-02T20:25:02.384Z,8.62
2023-04-02T20:26:29.504Z,8.55
2023-04-02T20:28:29.485Z,8.57
2023-04-02T20:30:29.526Z,8.56
2023-04-02T20:32:29.654Z,8.56
2023-04-02T20:34:29.678Z,8.52
2023-04-02T20:36:29.635Z,8.43
2023-04-02T20:38:30.583Z,8.41
2023-04-02T20:41:40.505Z,8.42
2023-04-02T20:43:40.765Z,8.37
2023-04-02T20:45:40.469Z,8.28
2023-04-02T20:47:40.483Z,8.28
2023-04-02T20:49:40.478Z,8.23
2023-04-02T20:51:40.509Z,8.16
2023-04-02T20:53:40.475Z,8.19
2023-04-02T20:57:14.419Z,8.16
2023-04-02T20:59:14.342Z,8.2
2023-04-02T21:01:14.466Z,8.14
2023-04-02T21:03:14.264Z,8.09
2023-04-02T21:05:14.661Z,8.14
2023-04-02T21:07:14.255Z,8.16
2023-04-02T21:09:14.629Z,8.21
2023-04-02T21:12:06.685Z,8.09
2023-04-02T21:14:06.740Z,8.11
2023-04-02T21:16:06.782Z,8.1
2023-04-02T21:18:06.701Z,8.16
2023-04-02T21:20:06.705Z,8.14
2023-04-02T21:22:06.662Z,8.09
2023-04-02T21:24:06.705Z,8.05
2023-04-02T21:27:54.248Z,8.05
2023-04-02T21:29:54.303Z,7.98
2023-04-02T21:31:54.594Z,7.92
2023-04-02T21:33:54.312Z,7.95
2023-04-02T21:35:54.261Z,7.94
2023-04-02T21:37:54.315Z,7.96
2023-04-02T21:39:54.226Z,7.91
2023-04-02T21:42:55.433Z,7.91
2023-04-02T21:44:55.428Z,7.85
2023-04-02T21:46:55.380Z,7.9
2023-04-02T21:48:55.273Z,7.85
2023-04-02T21:50:55.329Z,7.87
2023-04-02T21:52:55.371Z,7.92
2023-04-02T21:54:55.485Z,7.93
2023-04-02T21:58:07.126Z,7.84
2023-04-02T22:00:07.122Z,7.79
2023-04-02T22:02:07.136Z,7.72
2023-04-02T22:04:07.020Z,7.73
2023-04-02T22:06:07.045Z,7.75
2023-04-02T22:08:06.963Z,7.74
2023-04-02T22:10:06.957Z,7.83
2023-04-02T22:12:52.744Z,7.81
2023-04-02T22:14:52.777Z,7.83
2023-04-02T22:16:52.809Z,7.81
2023-04-02T22:18:52.785Z,7.86
2023-04-02T22:20:52.864Z,7.8
2023-04-02T22:22:52.759Z,7.75
2023-04-02T22:24:53.014Z,7.73
2023-04-02T22:28:05.570Z,7.73
2023-04-02T22:30:05.597Z,7.65
2023-04-02T22:32:05.568Z,7.69
2023-04-02T22:34:05.599Z,7.71
2023-04-02T22:36:05.577Z,7.7
2023-04-02T22:38:05.584Z,7.66
2023-04-02T22:40:05.610Z,7.65
2023-04-02T22:43:43.717Z,7.61
2023-04-02T22:45:43.674Z,7.64
2023-04-02T22:47:43.656Z,7.73
2023-04-02T22:49:43.670Z,7.64
2023-04-02T22:51:44.560Z,7.63
2023-04-02T22:53:43.664Z,7.63
2023-04-02T22:55:43.676Z,7.64
2023-04-02T22:58:01.102Z,7.65
2023-04-02T23:00:01.136Z,7.53
2023-04-02T23:02:01.142Z,7.55
2023-04-02T23:04:01.186Z,7.54
2023-04-02T23:06:01.080Z,7.54
2023-04-02T23:08:01.072Z,7.54
2023-04-02T23:10:01.966Z,7.51
2023-04-02T23:12:01.121Z,7.54
2023-04-02T23:14:06.102Z,7.41
2023-04-02T23:16:06.141Z,7.39
2023-04-02T23:18:06.131Z,7.38
2023-04-02T23:20:06.104Z,7.37
2023-04-02T23:22:06.125Z,7.29
2023-04-02T23:24:06.131Z,7.21
2023-04-02T23:26:06.155Z,7.26
2023-04-02T23:28:33.156Z,7.32
2023-04-02T23:30:33.092Z,7.21
2023-04-02T23:32:33.170Z,7.17
2023-04-02T23:34:33.151Z,7.34
2023-04-02T23:36:33.078Z,7.29
2023-04-02T23:38:33.129Z,7.22
2023-04-02T23:40:33.120Z,7.22
2023-04-02T23:44:14.345Z,7.06
2023-04-02T23:46:14.284Z,7.24
2023-04-02T23:48:14.334Z,6.98
2023-04-02T23:50:14.326Z,6.95
2023-04-02T23:52:14.321Z,7.06
2023-04-02T23:54:14.283Z,7.21
2023-04-02T23:56:14.299Z,7.18
2023-04-02T23:59:31.543Z,7.26
